createdAt,value
2023-02-02T00:00:16.676Z,97133.44
2023-02-02T00:03:25.409Z,97147.75
2023-02-02T00:06:34.760Z,97140.03
2023-02-02T00:09:55.260Z,97129.56
2023-02-02T00:13:40.290Z,97125.88
2023-02-02T00:17:49.698Z,97139.81
2023-02-02T00:21:27.160Z,97133.72
2023-02-02T00:24:52.459Z,97155.22
2023-02-02T00:28:05.331Z,97143.50
2023-02-02T00:31:13.336Z,97158.94
2023-02-02T00:34:23.704Z,97159.63
2023-02-02T00:37:32.753Z,97160.72
2023-02-02T00:40:39.802Z,97171.34
2023-02-02T00:43:46.989Z,97166.50
2023-02-02T00:46:54.043Z,97181.28
2023-02-02T00:50:00.158Z,97173.53
2023-02-02T00:53:09.915Z,97167.34
2023-02-02T00:56:16.197Z,97169.81
2023-02-02T00:59:23.134Z,97172.56
2023-02-02T01:02:29.411Z,97162.50
2023-02-02T01:05:38.044Z,97167.09
2023-02-02T01:08:46.801Z,97167.47
2023-02-02T01:11:53.841Z,97175.59
2023-02-02T01:14:59.992Z,97171.88
2023-02-02T01:18:09.252Z,97172.88
2023-02-02T01:21:18.257Z,97170.38
2023-02-02T01:24:29.641Z,97177.13
2023-02-02T01:27:35.798Z,97177.00
2023-02-02T01:30:43.929Z,97177.81
2023-02-02T01:33:56.463Z,97171.63
2023-02-02T01:37:04.980Z,97188.28
2023-02-02T01:40:20.985Z,97169.00
2023-02-02T01:43:32.320Z,97187.19
2023-02-02T01:46:47.436Z,97187.31
2023-02-02T01:49:59.526Z,97193.78
2023-02-02T01:53:16.384Z,97191.31
2023-02-02T01:56:35.836Z,97184.97
2023-02-02T01:59:42.992Z,97191.31
2023-02-02T02:02:52.573Z,97187.47
2023-02-02T02:06:08.959Z,97188.41
2023-02-02T02:09:15.718Z,97187.47
2023-02-02T02:12:24.283Z,97200.41
2023-02-02T02:15:59.261Z,97200.41
2023-02-02T02:19:33.701Z,97206.19
2023-02-02T02:23:45.933Z,97208.41
2023-02-02T02:27:42.187Z,97215.84
2023-02-02T02:31:27.818Z,97208.53
2023-02-02T02:34:56.474Z,97214.31
2023-02-02T02:38:19.589Z,97214.44
2023-02-02T02:41:36.613Z,97228.94
2023-02-02T02:44:44.988Z,97232.91
2023-02-02T02:47:54.424Z,97236.50
2023-02-02T02:51:43.927Z,97237.31
2023-02-02T02:54:58.649Z,97235.50
2023-02-02T02:58:24.672Z,97234.41
2023-02-02T03:01:48.492Z,97238.56
2023-02-02T03:05:25.437Z,97248.88
2023-02-02T03:08:44.744Z,97254.69
2023-02-02T03:11:51.537Z,97249.72
2023-02-02T03:14:57.493Z,97244.72
2023-02-02T03:18:04.554Z,97256.72
2023-02-02T03:21:10.445Z,97253.81
2023-02-02T03:24:32.240Z,97244.31
2023-02-02T03:27:38.127Z,97245.53
2023-02-02T03:30:47.769Z,97250.66
2023-02-02T03:33:56.480Z,97254.22
2023-02-02T03:37:03.314Z,97255.59
2023-02-02T03:40:14.353Z,97260.41
2023-02-02T03:43:24.652Z,97256.41
2023-02-02T03:46:30.851Z,97259.56
2023-02-02T03:49:37.643Z,97253.22
2023-02-02T03:52:47.098Z,97257.78
2023-02-02T03:55:56.526Z,97252.13
2023-02-02T03:59:02.377Z,97250.31
2023-02-02T04:02:25.233Z,97257.22
2023-02-02T04:05:31.305Z,97256.25
2023-02-02T04:08:39.707Z,97252.38
2023-02-02T04:11:48.236Z,97252.94
2023-02-02T04:14:54.991Z,97240.38
2023-02-02T04:18:00.940Z,97248.66
2023-02-02T04:21:20.305Z,97246.25
2023-02-02T04:24:36.599Z,97246.25
2023-02-02T04:27:47.020Z,97246.97
2023-02-02T04:30:53.570Z,97244.34
2023-02-02T04:34:00.967Z,97239.16
2023-02-02T04:37:06.848Z,97247.44
2023-02-02T04:40:16.191Z,97241.31
2023-02-02T04:43:24.702Z,97235.56
2023-02-02T04:46:32.386Z,97236.38
2023-02-02T04:49:38.180Z,97248.13
2023-02-02T04:52:44.949Z,97245.22
2023-02-02T04:55:50.811Z,97238.59
2023-02-02T04:59:00.158Z,97235.69
2023-02-02T05:02:07.399Z,97238.97
2023-02-02T05:05:17.617Z,97239.66
2023-02-02T05:08:23.614Z,97243.50
2023-02-02T05:11:31.128Z,97244.28
2023-02-02T05:14:39.582Z,97244.56
2023-02-02T05:17:46.302Z,97245.13
2023-02-02T05:20:52.179Z,97244.28
2023-02-02T05:23:59.954Z,97241.09
2023-02-02T05:27:05.987Z,97239.31
2023-02-02T05:30:17.820Z,97226.06
2023-02-02T05:33:23.792Z,97226.84
2023-02-02T05:36:36.864Z,97222.50
2023-02-02T05:39:46.981Z,97227.75
2023-02-02T05:42:53.726Z,97228.56
2023-02-02T05:46:03.111Z,97236.66
2023-02-02T05:49:10.109Z,97236.53
2023-02-02T05:52:25.200Z,97241.28
2023-02-02T05:55:32.211Z,97236.38
2023-02-02T05:58:38.124Z,97229.09
2023-02-02T06:01:48.145Z,97231.78
2023-02-02T06:04:54.129Z,97238.84
2023-02-02T06:08:01.860Z,97233.59
2023-02-02T06:11:13.673Z,97233.19
2023-02-02T06:14:24.414Z,97222.13
2023-02-02T06:17:33.608Z,97215.78
2023-02-02T06:20:40.767Z,97227.34
2023-02-02T06:23:50.069Z,97235.22
2023-02-02T06:27:01.950Z,97228.06
2023-02-02T06:30:09.106Z,97238.25
2023-02-02T06:33:25.023Z,97239.09
2023-02-02T06:36:31.724Z,97242.56
2023-02-02T06:39:40.447Z,97247.50
2023-02-02T06:42:46.446Z,97249.19
2023-02-02T06:45:53.390Z,97250.56
2023-02-02T06:49:01.994Z,97250.00
2023-02-02T06:52:09.980Z,97243.81
2023-02-02T06:55:15.886Z,97238.03
2023-02-02T06:58:22.631Z,97237.34
2023-02-02T07:01:28.676Z,97240.53
2023-02-02T07:04:38.804Z,97238.19
2023-02-02T07:07:44.734Z,97235.56
2023-02-02T07:11:14.155Z,97238.44
2023-02-02T07:14:17.595Z,97230.75
2023-02-02T07:17:24.319Z,97219.44
2023-02-02T07:20:32.859Z,97229.78
2023-02-02T07:23:39.543Z,97243.84
2023-02-02T07:26:46.407Z,97236.25
2023-02-02T07:29:59.887Z,97245.19
2023-02-02T07:33:25.430Z,97248.22
2023-02-02T07:36:35.029Z,97245.09
2023-02-02T07:39:40.884Z,97242.06
2023-02-02T07:42:50.125Z,97247.41
2023-02-02T07:45:56.074Z,97238.88
2023-02-02T07:49:08.900Z,97232.81
2023-02-02T07:52:22.664Z,97226.88
2023-02-02T07:55:29.582Z,97228.09
2023-02-02T07:58:35.640Z,97233.75
2023-02-02T08:01:47.218Z,97239.56
2023-02-02T08:04:53.150Z,97231.56
2023-02-02T08:08:02.619Z,97249.06
2023-02-02T08:11:11.594Z,97251.97
2023-02-02T08:14:18.326Z,97256.53
2023-02-02T08:17:24.251Z,97248.38
2023-02-02T08:20:31.226Z,97254.16
2023-02-02T08:23:41.935Z,97255.25
2023-02-02T08:26:49.017Z,97256.09
2023-02-02T08:29:55.157Z,97244.13
2023-02-02T08:33:02.060Z,97248.91
2023-02-02T08:36:12.698Z,97249.44
2023-02-02T08:39:22.914Z,97253.47
2023-02-02T08:42:28.927Z,97244.19
2023-02-02T08:46:13.249Z,97256.31
2023-02-02T08:49:02.614Z,97251.63
2023-02-02T08:52:12.437Z,97261.16
2023-02-02T08:55:20.877Z,97274.91
2023-02-02T08:58:51.123Z,97276.41
2023-02-02T09:01:58.931Z,97283.63
2023-02-02T09:05:05.651Z,97299.50
2023-02-02T09:08:11.789Z,97281.03
2023-02-02T09:11:22.942Z,97288.47
2023-02-02T09:14:28.786Z,97290.03
2023-02-02T09:17:41.929Z,97308.38
2023-02-02T09:20:47.832Z,97302.00
2023-02-02T09:23:56.920Z,97310.97
2023-02-02T09:27:07.844Z,97308.22
2023-02-02T09:30:16.553Z,97313.31
2023-02-02T09:33:22.689Z,97316.22
2023-02-02T09:36:29.823Z,97323.13
2023-02-02T09:39:35.735Z,97331.41
2023-02-02T09:43:09.852Z,97320.09
2023-02-02T09:46:36.558Z,97315.13
2023-02-02T09:50:01.844Z,97318.97
2023-02-02T09:53:24.830Z,97331.25
2023-02-02T09:56:44.262Z,97329.72
2023-02-02T09:59:56.990Z,97331.06
2023-02-02T10:03:15.946Z,97332.72
2023-02-02T10:06:40.567Z,97330.63
2023-02-02T10:10:18.001Z,97343.13
2023-02-02T10:13:45.157Z,97325.19
2023-02-02T10:17:02.826Z,97347.84
2023-02-02T10:20:36.952Z,97342.81
2023-02-02T10:23:47.451Z,97350.28
2023-02-02T10:26:58.826Z,97362.00
2023-02-02T10:30:18.802Z,97352.59
2023-02-02T10:33:40.987Z,97362.91
2023-02-02T10:37:22.180Z,97367.88
2023-02-02T10:40:48.511Z,97368.25
2023-02-02T10:44:19.198Z,97373.91
2023-02-02T10:47:33.504Z,97381.78
2023-02-02T10:50:51.767Z,97387.09
2023-02-02T10:54:05.417Z,97392.38
2023-02-02T10:57:19.680Z,97391.53
2023-02-02T11:00:35.654Z,97390.44
2023-02-02T11:03:42.913Z,97392.81
2023-02-02T11:06:51.754Z,97404.81
2023-02-02T11:10:01.707Z,97406.88
2023-02-02T11:13:19.337Z,97407.25
2023-02-02T11:16:42.607Z,97404.75
2023-02-02T11:19:50.066Z,97411.34
2023-02-02T11:23:08.723Z,97415.44
2023-02-02T11:26:20.927Z,97421.28
2023-02-02T11:29:38.277Z,97424.00
2023-02-02T11:48:10.888Z,97432.34
2023-02-02T11:51:29.032Z,97438.28
2023-02-02T11:54:40.810Z,97442.19
2023-02-02T11:58:28.412Z,97442.78
2023-02-02T12:01:45.481Z,97451.75
2023-02-02T12:04:58.121Z,97453.81
2023-02-02T12:08:05.265Z,97459.38
2023-02-02T12:11:36.590Z,97460.59
2023-02-02T12:14:56.849Z,97470.56
2023-02-02T12:18:31.723Z,97465.03
2023-02-02T12:22:02.675Z,97466.59
2023-02-02T12:25:52.308Z,97473.19
2023-02-02T12:29:35.299Z,97477.19
2023-02-02T12:33:26.932Z,97481.06
2023-02-02T12:36:55.390Z,97496.72
2023-02-02T12:40:28.114Z,97496.84
2023-02-02T13:15:27.239Z,97513.03
2023-02-02T13:18:45.054Z,97505.81
2023-02-02T13:21:54.690Z,97516.94
2023-02-02T13:25:11.537Z,97520.78
2023-02-02T13:28:38.685Z,97520.81
2023-02-02T13:31:59.718Z,97532.03
2023-02-02T13:35:19.636Z,97530.78
2023-02-02T13:38:30.602Z,97534.16
2023-02-02T13:41:36.900Z,97538.81
2023-02-02T13:44:53.701Z,97542.03
2023-02-02T13:48:22.294Z,97550.66
2023-02-02T13:51:53.964Z,97556.94
2023-02-02T13:55:53.058Z,97566.44
2023-02-02T13:59:38.573Z,97578.56
2023-02-02T14:02:52.355Z,97576.03
2023-02-02T14:06:13.619Z,97576.84
2023-02-02T14:09:22.977Z,97580.31
2023-02-02T14:12:37.612Z,97587.66
2023-02-02T14:15:47.860Z,97592.94
2023-02-02T14:19:00.084Z,97602.88
2023-02-02T14:22:43.902Z,97601.78
2023-02-02T14:26:09.895Z,97609.50
2023-02-02T14:30:00.686Z,97609.88
2023-02-02T14:33:47.913Z,97623.59
2023-02-02T14:37:31.770Z,97619.66
2023-02-02T14:41:00.376Z,97624.16
2023-02-02T14:44:07.320Z,97643.84
2023-02-02T14:47:50.806Z,97654.66
2023-02-02T14:51:05.977Z,97647.50
2023-02-02T14:54:35.831Z,97649.31
2023-02-02T14:57:43.116Z,97669.34
2023-02-02T15:01:11.666Z,97659.94
2023-02-02T15:04:31.015Z,97672.56
2023-02-02T15:07:57.745Z,97672.69
2023-02-02T15:11:24.668Z,97685.47
2023-02-02T15:14:44.426Z,97687.00
2023-02-02T15:18:19.695Z,97696.97
2023-02-02T15:21:31.209Z,97715.50
2023-02-02T15:24:41.251Z,97723.81
2023-02-02T15:28:01.066Z,97724.34
2023-02-02T15:31:26.140Z,97730.56
2023-02-02T15:34:45.221Z,97730.97
2023-02-02T15:37:59.065Z,97746.34
2023-02-02T15:41:26.860Z,97760.56
2023-02-02T15:44:39.631Z,97750.47
2023-02-02T15:47:48.237Z,97765.44
2023-02-02T15:50:57.721Z,97778.72
2023-02-02T15:54:32.115Z,97776.88
2023-02-02T15:57:43.550Z,97790.31
2023-02-02T16:01:17.501Z,97802.16
2023-02-02T16:04:33.148Z,97816.31
2023-02-02T16:07:40.098Z,97815.47
2023-02-02T16:10:49.230Z,97819.03
2023-02-02T16:14:05.708Z,97825.66
2023-02-02T16:17:28.987Z,97839.75
2023-02-02T16:20:43.577Z,97836.09
2023-02-02T16:23:51.643Z,97838.34
2023-02-02T16:27:04.016Z,97852.19
2023-02-02T16:30:26.694Z,97854.31
2023-02-02T16:33:41.513Z,97867.50
2023-02-02T16:37:09.385Z,97866.84
2023-02-02T16:40:32.061Z,97866.78
2023-02-02T16:43:41.166Z,97878.97
2023-02-02T16:46:53.339Z,97881.81
2023-02-02T16:50:37.182Z,97899.94
2023-02-02T16:53:47.259Z,97904.38
2023-02-02T16:57:06.987Z,97914.47
2023-02-02T17:00:27.228Z,97910.31
2023-02-02T17:03:40.885Z,97925.47
2023-02-02T17:06:53.657Z,97937.78
2023-02-02T17:10:31.120Z,97958.69
2023-02-02T17:13:43.529Z,97973.13
2023-02-02T17:16:50.346Z,97964.56
2023-02-02T17:19:57.392Z,97964.56
2023-02-02T17:23:10.870Z,97980.97
2023-02-02T17:26:17.951Z,97977.50
2023-02-02T17:29:26.281Z,97981.41
2023-02-02T17:32:35.216Z,97987.13
2023-02-02T17:35:53.565Z,97994.59
2023-02-02T17:39:03.438Z,97997.38
2023-02-02T17:42:27.671Z,98007.16
2023-02-02T17:45:37.267Z,98019.75
2023-02-02T17:48:43.379Z,98020.81
2023-02-02T17:51:51.070Z,98023.84
2023-02-02T17:54:59.768Z,98028.03
2023-02-02T17:58:10.698Z,98026.16
2023-02-02T18:01:16.855Z,98039.28
2023-02-02T18:04:25.219Z,98056.22
2023-02-02T18:07:31.388Z,98063.38
2023-02-02T18:10:49.392Z,98057.78
2023-02-02T18:13:55.433Z,98062.31
2023-02-02T18:17:10.196Z,98083.41
2023-02-02T18:20:23.200Z,98080.44
2023-02-02T18:23:30.643Z,98091.38
2023-02-02T18:26:44.131Z,98093.41
2023-02-02T18:29:51.746Z,98106.75
2023-02-02T18:32:57.771Z,98103.41
2023-02-02T18:36:04.647Z,98112.22
2023-02-02T18:39:11.773Z,98125.34
2023-02-02T18:42:21.468Z,98129.88
2023-02-02T18:45:27.956Z,98139.03
2023-02-02T18:48:35.698Z,98136.06
2023-02-02T18:51:45.022Z,98141.19
2023-02-02T18:54:52.993Z,98146.06
2023-02-02T18:58:02.173Z,98151.06
2023-02-02T19:01:13.813Z,98163.81
2023-02-02T19:04:20.058Z,98166.81
2023-02-02T19:07:39.298Z,98177.19
2023-02-02T19:10:52.050Z,98187.56
2023-02-02T19:14:04.902Z,98196.25
2023-02-02T19:17:25.179Z,98205.91
2023-02-02T19:20:34.006Z,98210.66
2023-02-02T19:23:46.871Z,98226.75
2023-02-02T19:26:54.180Z,98228.78
2023-02-02T19:30:06.038Z,98228.88
2023-02-02T19:33:17.467Z,98232.13
2023-02-02T19:36:31.137Z,98236.16
2023-02-02T19:39:37.932Z,98241.41
2023-02-02T19:42:52.535Z,98250.09
2023-02-02T19:46:04.479Z,98256.41
2023-02-02T19:49:21.377Z,98267.09
2023-02-02T19:52:30.129Z,98258.25
2023-02-02T19:55:40.226Z,98278.38
2023-02-02T19:58:59.140Z,98290.31
2023-02-02T20:02:51.876Z,98300.09
2023-02-02T20:06:08.157Z,98304.69
2023-02-02T20:09:19.807Z,98302.56
2023-02-02T20:12:34.951Z,98303.25
2023-02-02T20:15:43.318Z,98305.19
2023-02-02T20:18:57.134Z,98318.94
2023-02-02T20:22:04.424Z,98312.75
2023-02-02T20:25:11.890Z,98315.88
2023-02-02T20:28:40.217Z,98326.19
2023-02-02T20:31:50.580Z,98327.50
2023-02-02T20:35:02.506Z,98334.97
2023-02-02T20:38:23.700Z,98336.13
2023-02-02T20:41:29.784Z,98343.31
2023-02-02T20:44:38.362Z,98348.13
2023-02-02T20:47:44.417Z,98345.28
2023-02-02T20:50:53.907Z,98346.94
2023-02-02T20:54:07.717Z,98354.88
2023-02-02T20:57:14.880Z,98364.84
2023-02-02T21:00:30.446Z,98367.03
2023-02-02T21:03:39.385Z,98375.44
2023-02-02T21:06:49.442Z,98389.59
2023-02-02T21:09:56.481Z,98392.41
2023-02-02T21:13:22.068Z,98402.44
2023-02-02T21:16:30.350Z,98406.63
2023-02-02T21:19:36.449Z,98404.16
2023-02-02T21:22:46.165Z,98402.91
2023-02-02T21:25:55.422Z,98403.13
2023-02-02T21:29:02.503Z,98413.31
2023-02-02T21:32:09.211Z,98411.09
2023-02-02T21:35:21.030Z,98411.09
2023-02-02T21:38:30.314Z,98417.41
2023-02-02T21:41:37.756Z,98431.22
2023-02-02T21:44:49.885Z,98426.72
2023-02-02T21:48:00.798Z,98427.13
2023-02-02T21:51:27.081Z,98437.78
2023-02-02T21:54:41.388Z,98445.66
2023-02-02T21:57:47.319Z,98438.97
2023-02-02T22:00:55.495Z,98429.34
2023-02-02T22:04:08.109Z,98443.47
2023-02-02T22:07:31.114Z,98450.50
2023-02-02T22:10:45.482Z,98447.25
2023-02-02T22:13:52.690Z,98456.25
2023-02-02T22:17:02.064Z,98464.84
2023-02-02T22:20:32.932Z,98455.19
2023-02-02T22:23:45.784Z,98451.03
2023-02-02T22:26:55.801Z,98459.56
2023-02-02T22:30:20.428Z,98471.41
2023-02-02T22:33:27.942Z,98473.53
2023-02-02T22:36:33.893Z,98477.19
2023-02-02T22:39:42.954Z,98483.16
2023-02-02T22:42:51.593Z,98488.28
2023-02-02T22:45:58.482Z,98483.69
2023-02-02T22:49:04.650Z,98494.78
2023-02-02T22:52:11.378Z,98498.56
2023-02-02T22:55:18.257Z,98497.84
2023-02-02T22:58:28.572Z,98509.97
2023-02-02T23:01:34.447Z,98511.25
2023-02-02T23:04:41.192Z,98516.03
2023-02-02T23:07:48.061Z,98518.47
2023-02-02T23:10:54.861Z,98518.56
2023-02-02T23:14:03.555Z,98526.63
2023-02-02T23:17:10.703Z,98522.22
2023-02-02T23:20:18.153Z,98519.59
2023-02-02T23:23:25.134Z,98524.97
2023-02-02T23:26:30.983Z,98522.13
2023-02-02T23:29:40.243Z,98526.28
2023-02-02T23:32:46.384Z,98524.53
2023-02-02T23:35:53.048Z,98531.66
2023-02-02T23:38:58.985Z,98536.06
2023-02-02T23:42:05.799Z,98538.06
2023-02-02T23:45:16.232Z,98550.06
2023-02-02T23:48:24.320Z,98555.13
2023-02-02T23:51:33.563Z,98555.84
2023-02-02T23:54:44.000Z,98560.00
2023-02-02T23:57:50.339Z,98563.16
